createdAt,value
2018-01-15T00:00:49.585Z,48.20
2018-01-15T00:03:17.392Z,48.10
2018-01-15T00:05:45.910Z,47.80
2018-01-15T00:08:13.687Z,47.70
2018-01-15T00:10:41.449Z,47.90
2018-01-15T00:13:09.228Z,48.00
2018-01-15T00:15:37.033Z,47.80
2018-01-15T00:18:05.655Z,47.60
2018-01-15T00:20:33.435Z,47.60
2018-01-15T00:23:01.267Z,47.50
2018-01-15T00:25:29.070Z,47.30
2018-01-15T00:27:56.853Z,47.30
2018-01-15T00:30:25.411Z,47.50
2018-01-15T00:32:53.215Z,47.50
2018-01-15T00:35:21.761Z,47.70
2018-01-15T00:37:49.593Z,47.70
2018-01-15T00:40:17.408Z,48.00
2018-01-15T00:42:45.242Z,48.30
2018-01-15T00:45:13.051Z,48.70
2018-01-15T00:47:40.832Z,49.00
2018-01-15T00:50:09.367Z,49.70
2018-01-15T00:52:37.282Z,49.70
2018-01-15T00:55:05.122Z,49.70
2018-01-15T00:57:33.703Z,49.70
2018-01-15T01:00:01.505Z,49.20
2018-01-15T01:02:29.315Z,49.10
2018-01-15T01:04:57.657Z,48.90
2018-01-15T01:07:25.455Z,48.70
2018-01-15T01:09:53.271Z,48.40
2018-01-15T01:12:21.071Z,48.20
2018-01-15T01:14:48.916Z,48.00
2018-01-15T01:17:16.761Z,47.90
2018-01-15T01:19:44.577Z,47.20
2018-01-15T01:22:12.396Z,46.70
2018-01-15T01:24:40.931Z,46.90
2018-01-15T01:27:08.705Z,46.90
2018-01-15T01:29:36.463Z,47.00
2018-01-15T01:32:04.251Z,47.10
2018-01-15T01:34:32.805Z,47.10
2018-01-15T01:37:00.576Z,47.10
2018-01-15T01:39:28.388Z,47.10
2018-01-15T01:41:56.170Z,47.00
2018-01-15T01:44:24.014Z,46.90
2018-01-15T01:46:51.926Z,46.80
2018-01-15T01:49:19.732Z,46.80
2018-01-15T01:51:48.292Z,46.90
2018-01-15T01:54:16.146Z,46.90
2018-01-15T01:56:43.928Z,46.90
2018-01-15T01:59:11.727Z,47.00
2018-01-15T02:01:39.567Z,47.10
2018-01-15T02:04:07.482Z,47.30
2018-01-15T02:06:35.330Z,47.40
2018-01-15T02:09:03.192Z,47.40
2018-01-15T02:11:30.979Z,47.40
2018-01-15T02:13:58.849Z,47.50
2018-01-15T02:16:26.659Z,47.60
2018-01-15T02:18:54.494Z,47.70
2018-01-15T02:21:22.334Z,47.80
2018-01-15T02:23:50.116Z,47.80
2018-01-15T02:26:17.984Z,47.80
2018-01-15T02:28:45.824Z,47.80
2018-01-15T02:31:13.635Z,47.90
2018-01-15T02:33:41.522Z,47.60
2018-01-15T02:36:10.100Z,47.80
2018-01-15T02:38:37.956Z,47.70
2018-01-15T02:41:05.734Z,47.50
2018-01-15T02:43:34.291Z,47.50
2018-01-15T02:46:02.090Z,47.40
2018-01-15T02:48:30.631Z,47.80
2018-01-15T02:50:58.466Z,47.80
2018-01-15T02:53:26.264Z,48.30
2018-01-15T02:55:54.059Z,48.60
2018-01-15T02:58:22.594Z,49.40
2018-01-15T03:00:50.357Z,49.40
2018-01-15T03:03:18.135Z,49.50
2018-01-15T03:05:45.936Z,49.50
2018-01-15T03:08:14.476Z,48.80
2018-01-15T03:10:42.271Z,48.80
2018-01-15T03:13:10.063Z,48.10
2018-01-15T03:15:38.610Z,47.90
2018-01-15T03:18:06.431Z,47.80
2018-01-15T03:20:34.235Z,47.80
2018-01-15T03:23:02.076Z,48.00
2018-01-15T03:25:29.856Z,48.10
2018-01-15T03:27:57.667Z,47.90
2018-01-15T03:30:26.232Z,48.00
2018-01-15T03:32:54.797Z,47.90
2018-01-15T03:35:22.587Z,48.00
2018-01-15T03:37:51.136Z,47.80
2018-01-15T03:40:18.959Z,47.80
2018-01-15T03:42:46.759Z,47.60
2018-01-15T03:45:14.611Z,47.40
2018-01-15T03:47:42.384Z,47.20
2018-01-15T03:50:10.212Z,47.10
2018-01-15T03:52:37.982Z,46.90
2018-01-15T03:55:05.785Z,46.70
2018-01-15T03:57:33.569Z,46.60
2018-01-15T04:00:01.391Z,46.10
2018-01-15T04:02:29.256Z,45.10
2018-01-15T04:04:57.051Z,45.10
2018-01-15T04:07:24.808Z,45.50
2018-01-15T04:09:52.596Z,45.60
2018-01-15T04:12:20.367Z,45.10
2018-01-15T04:14:48.132Z,44.80
2018-01-15T04:17:15.902Z,45.70
2018-01-15T04:19:44.438Z,45.40
2018-01-15T04:22:12.212Z,45.30
2018-01-15T04:24:39.979Z,45.30
2018-01-15T04:27:07.768Z,45.40
2018-01-15T04:29:36.347Z,45.90
2018-01-15T04:32:04.148Z,45.30
2018-01-15T04:34:32.001Z,46.00
2018-01-15T04:36:59.827Z,45.20
2018-01-15T04:39:27.639Z,45.30
2018-01-15T04:41:55.492Z,45.20
2018-01-15T04:44:24.098Z,44.80
2018-01-15T04:46:51.887Z,44.80
2018-01-15T04:49:19.656Z,45.00
2018-01-15T04:51:47.482Z,44.30
2018-01-15T04:54:15.278Z,44.80
2018-01-15T04:56:43.605Z,44.90
2018-01-15T04:59:11.388Z,44.80
2018-01-15T05:01:39.185Z,44.90
2018-01-15T05:04:07.782Z,45.00
2018-01-15T05:06:35.574Z,45.60
2018-01-15T05:09:04.939Z,44.90
2018-01-15T05:11:32.752Z,44.90
2018-01-15T05:14:00.514Z,45.00
2018-01-15T05:16:29.055Z,44.90
2018-01-15T05:18:56.896Z,44.90
2018-01-15T05:21:24.741Z,45.00
2018-01-15T05:23:52.538Z,45.00
2018-01-15T05:26:20.345Z,45.10
2018-01-15T05:28:48.886Z,45.10
2018-01-15T05:31:16.665Z,45.00
2018-01-15T05:33:44.435Z,44.90
2018-01-15T05:36:12.214Z,45.00
2018-01-15T05:38:40.095Z,45.10
2018-01-15T05:41:08.637Z,44.70
2018-01-15T05:43:36.426Z,44.70
2018-01-15T05:46:04.207Z,44.80
2018-01-15T05:48:32.756Z,44.70
2018-01-15T05:51:00.586Z,44.60
2018-01-15T05:53:28.370Z,44.20
2018-01-15T05:55:56.204Z,44.30
2018-01-15T05:58:24.005Z,44.10
2018-01-15T06:00:51.788Z,44.20
2018-01-15T06:03:19.631Z,44.00
2018-01-15T06:05:47.525Z,44.10
2018-01-15T06:08:15.370Z,44.30
2018-01-15T06:10:43.146Z,44.20
2018-01-15T06:13:10.911Z,44.30
2018-01-15T06:15:38.731Z,44.40
2018-01-15T06:18:06.495Z,44.40
2018-01-15T06:20:34.280Z,44.50
2018-01-15T06:23:02.123Z,44.50
2018-01-15T06:25:29.964Z,44.60
2018-01-15T06:27:58.607Z,44.30
2018-01-15T06:30:26.415Z,44.20
2018-01-15T06:32:54.970Z,44.30
2018-01-15T06:35:22.815Z,44.20
2018-01-15T06:37:50.592Z,44.30
2018-01-15T06:40:18.353Z,44.00
2018-01-15T06:42:46.130Z,43.70
2018-01-15T06:45:13.911Z,44.20
2018-01-15T06:47:42.495Z,44.30
2018-01-15T06:50:11.067Z,44.40
2018-01-15T06:52:38.828Z,44.30
2018-01-15T06:55:06.737Z,44.00
2018-01-15T06:57:34.536Z,43.90
2018-01-15T07:00:02.324Z,43.90
2018-01-15T07:02:30.115Z,43.90
2018-01-15T07:04:58.668Z,44.30
2018-01-15T07:07:26.485Z,44.30
2018-01-15T07:09:54.355Z,44.40
2018-01-15T07:12:22.127Z,44.40
2018-01-15T07:14:49.935Z,44.40
2018-01-15T07:17:17.728Z,44.50
2018-01-15T07:19:45.531Z,45.10
2018-01-15T07:22:13.360Z,44.60
2018-01-15T07:24:41.182Z,44.70
2018-01-15T07:27:09.018Z,44.70
2018-01-15T07:29:36.887Z,44.80
2018-01-15T07:32:04.659Z,45.20
2018-01-15T07:34:32.439Z,45.40
2018-01-15T07:37:00.252Z,45.50
2018-01-15T07:39:28.094Z,45.40
2018-01-15T07:41:56.738Z,45.30
2018-01-15T07:44:24.516Z,45.30
2018-01-15T07:46:52.330Z,45.00
2018-01-15T07:49:20.250Z,43.90
2018-01-15T07:51:48.041Z,43.00
2018-01-15T07:54:16.630Z,43.10
2018-01-15T07:56:44.435Z,43.10
2018-01-15T07:59:12.215Z,42.60
2018-01-15T08:01:39.971Z,42.50
2018-01-15T08:04:07.750Z,42.90
2018-01-15T08:06:35.605Z,42.70
2018-01-15T08:09:03.601Z,42.40
2018-01-15T08:11:32.179Z,42.70
2018-01-15T08:13:59.964Z,42.50
2018-01-15T08:16:28.554Z,42.40
2018-01-15T08:18:57.172Z,42.50
2018-01-15T08:21:24.943Z,42.50
2018-01-15T08:23:52.830Z,42.50
2018-01-15T08:26:20.643Z,42.20
2018-01-15T08:28:48.443Z,42.50
2018-01-15T08:31:16.283Z,41.50
2018-01-15T08:33:44.067Z,40.70
2018-01-15T08:36:11.961Z,40.40
2018-01-15T08:38:39.736Z,40.10
2018-01-15T08:41:07.582Z,39.70
2018-01-15T08:43:35.378Z,39.80
2018-01-15T08:46:03.920Z,39.80
2018-01-15T08:48:31.700Z,39.80
2018-01-15T08:50:59.466Z,39.60
2018-01-15T08:53:27.231Z,40.30
2018-01-15T08:55:55.053Z,39.20
2018-01-15T08:58:22.863Z,39.30
2018-01-15T09:00:50.698Z,38.70
2018-01-15T09:03:18.519Z,38.50
2018-01-15T09:05:47.071Z,38.70
2018-01-15T09:08:14.900Z,38.70
2018-01-15T09:10:42.731Z,38.60
2018-01-15T09:13:11.263Z,38.20
2018-01-15T09:15:39.063Z,38.20
2018-01-15T09:18:06.942Z,37.00
2018-01-15T09:20:35.485Z,37.40
2018-01-15T09:23:03.303Z,37.40
2018-01-15T09:25:31.835Z,37.30
2018-01-15T09:27:59.624Z,37.30
2018-01-15T09:30:27.415Z,37.40
2018-01-15T09:32:55.200Z,37.30
2018-01-15T09:35:22.963Z,37.10
2018-01-15T09:37:50.797Z,37.50
2018-01-15T09:40:19.348Z,36.60
2018-01-15T09:42:47.134Z,36.60
2018-01-15T09:45:14.950Z,36.30
2018-01-15T09:47:42.742Z,35.70
2018-01-15T09:50:11.530Z,35.80
2018-01-15T09:52:39.376Z,35.60
2018-01-15T09:55:07.170Z,35.70
2018-01-15T09:57:34.955Z,35.50
2018-01-15T10:00:02.740Z,35.40
2018-01-15T10:02:30.572Z,35.20
2018-01-15T10:04:59.159Z,35.20
2018-01-15T10:07:26.954Z,35.20
2018-01-15T10:09:54.742Z,36.00
2018-01-15T10:12:22.494Z,35.40
2018-01-15T10:14:50.295Z,35.30
2018-01-15T10:17:18.774Z,35.40
2018-01-15T10:19:46.552Z,35.10
2018-01-15T10:22:14.895Z,35.20
2018-01-15T10:24:42.738Z,35.40
2018-01-15T10:27:10.550Z,35.00
2018-01-15T10:29:38.382Z,35.50
2018-01-15T10:32:06.145Z,35.40
2018-01-15T10:34:33.936Z,34.90
2018-01-15T10:37:01.719Z,35.60
2018-01-15T10:39:29.498Z,35.20
2018-01-15T10:41:58.044Z,35.40
2018-01-15T10:44:25.840Z,35.40
2018-01-15T10:46:53.643Z,36.00
2018-01-15T10:49:21.417Z,35.80
2018-01-15T10:51:49.219Z,35.70
2018-01-15T10:54:16.995Z,36.50
2018-01-15T10:56:45.458Z,35.00
2018-01-15T10:59:13.255Z,36.20
2018-01-15T11:01:41.790Z,36.60
2018-01-15T11:04:09.572Z,36.60
2018-01-15T11:06:37.380Z,36.60
2018-01-15T11:09:05.294Z,36.20
2018-01-15T11:11:34.135Z,36.40
2018-01-15T11:14:01.891Z,35.80
2018-01-15T11:16:32.706Z,35.50
2018-01-15T11:19:00.491Z,35.70
2018-01-15T11:21:28.335Z,36.50
2018-01-15T11:23:56.151Z,36.70
2018-01-15T11:26:23.946Z,36.80
2018-01-15T11:28:51.761Z,36.80
2018-01-15T11:31:19.538Z,37.00
2018-01-15T11:33:47.314Z,36.70
2018-01-15T11:36:15.200Z,37.10
2018-01-15T11:38:42.963Z,36.70
2018-01-15T11:41:10.723Z,36.20
2018-01-15T11:43:38.519Z,36.20
2018-01-15T11:46:07.125Z,36.40
2018-01-15T11:48:34.967Z,36.30
2018-01-15T11:51:02.736Z,36.40
2018-01-15T11:53:31.315Z,36.20
2018-01-15T11:55:59.875Z,36.00
2018-01-15T11:58:28.874Z,36.00
2018-01-15T12:00:56.739Z,36.30
2018-01-15T12:03:24.566Z,35.90
2018-01-15T12:05:52.355Z,35.70
2018-01-15T12:08:20.115Z,36.10
2018-01-15T12:10:47.907Z,35.50
2018-01-15T12:13:15.727Z,35.90
2018-01-15T12:15:43.498Z,36.30
2018-01-15T12:18:11.271Z,36.60
2018-01-15T12:20:39.077Z,36.80
2018-01-15T12:23:07.646Z,37.90
2018-01-15T12:25:35.532Z,37.90
2018-01-15T12:28:04.063Z,39.20
2018-01-15T12:30:31.860Z,39.20
2018-01-15T12:32:59.675Z,39.70
2018-01-15T12:35:28.495Z,40.80
2018-01-15T12:37:57.339Z,40.70
2018-01-15T12:40:25.122Z,41.30
2018-01-15T12:42:52.886Z,41.70
2018-01-15T12:45:20.651Z,42.10
2018-01-15T12:47:48.430Z,42.20
2018-01-15T12:50:16.203Z,42.10
2018-01-15T12:52:43.982Z,41.60
2018-01-15T12:55:11.745Z,41.40
2018-01-15T12:57:39.587Z,41.70
2018-01-15T13:00:07.376Z,41.40
2018-01-15T13:02:35.176Z,40.80
2018-01-15T13:05:02.948Z,40.80
2018-01-15T13:07:42.631Z,40.50
2018-01-15T13:10:10.457Z,39.80
2018-01-15T13:12:38.229Z,40.50
2018-01-15T13:15:06.032Z,40.90
2018-01-15T13:17:33.807Z,41.30
2018-01-15T13:20:01.575Z,41.50
2018-01-15T13:22:29.379Z,41.20
2018-01-15T13:24:57.143Z,41.40
2018-01-15T13:27:24.910Z,41.20
2018-01-15T13:29:52.723Z,41.20
2018-01-15T13:32:20.574Z,41.70
2018-01-15T13:34:49.060Z,42.20
2018-01-15T13:37:16.855Z,42.30
2018-01-15T13:39:45.446Z,42.20
2018-01-15T13:42:14.010Z,42.10
2018-01-15T14:37:01.191Z,49.00
2018-01-15T14:39:29.055Z,48.40
2018-01-15T14:41:56.883Z,48.20
2018-01-15T14:44:24.761Z,48.40
2018-01-15T14:46:52.640Z,48.60
2018-01-15T14:49:20.520Z,48.70
2018-01-15T14:51:48.362Z,49.20
2018-01-15T14:54:16.192Z,48.90
2018-01-15T14:56:44.835Z,48.60
2018-01-15T14:59:12.691Z,48.70
2018-01-15T15:01:40.536Z,48.60
2018-01-15T15:04:08.445Z,48.30
2018-01-15T15:06:36.295Z,48.20
2018-01-15T15:09:04.228Z,48.50
2018-01-15T15:11:32.064Z,48.20
2018-01-15T15:14:00.746Z,48.60
2018-01-15T15:16:29.406Z,48.80
2018-01-15T15:18:57.252Z,48.80
2018-01-15T15:21:25.118Z,48.70
2018-01-15T15:23:52.964Z,48.20
2018-01-15T15:26:20.815Z,47.00
2018-01-15T15:28:48.699Z,47.20
2018-01-15T15:31:16.568Z,47.60
2018-01-15T15:33:44.985Z,48.70
2018-01-15T15:36:12.948Z,48.60
2018-01-15T15:38:40.789Z,48.10
2018-01-15T15:41:09.028Z,47.80
2018-01-15T15:43:37.649Z,47.80
2018-01-15T15:46:05.515Z,47.80
2018-01-15T15:48:33.377Z,48.20
2018-01-15T15:51:01.244Z,48.40
2018-01-15T15:53:29.156Z,48.60
2018-01-15T15:55:57.632Z,48.70
2018-01-15T15:58:25.505Z,48.60
2018-01-15T16:00:53.355Z,48.60
2018-01-15T16:03:21.277Z,48.80
2018-01-15T16:05:49.162Z,49.00
2018-01-15T16:08:17.054Z,48.60
2018-01-15T16:10:45.008Z,48.80
2018-01-15T16:13:12.946Z,48.90
2018-01-15T16:15:40.797Z,49.00
2018-01-15T16:18:09.427Z,49.10
2018-01-15T16:20:37.285Z,49.00
2018-01-15T16:23:05.135Z,49.00
2018-01-15T16:25:33.065Z,49.00
2018-01-15T16:28:01.663Z,49.20
2018-01-15T16:30:30.263Z,49.40
2018-01-15T16:32:58.108Z,49.30
2018-01-15T16:35:26.760Z,49.40
2018-01-15T16:37:54.596Z,49.30
2018-01-15T16:40:22.453Z,49.40
2018-01-15T16:42:50.288Z,49.50
2018-01-15T16:45:18.884Z,49.90
2018-01-15T16:47:46.716Z,49.90
2018-01-15T16:50:20.227Z,49.90
2018-01-15T16:52:48.049Z,50.10
2018-01-15T16:55:15.900Z,50.10
2018-01-15T16:57:43.745Z,50.20
2018-01-15T17:00:11.619Z,50.20
2018-01-15T17:02:39.507Z,50.80
2018-01-15T17:05:07.969Z,50.30
2018-01-15T17:07:36.019Z,50.30
2018-01-15T17:10:03.970Z,50.40
2018-01-15T17:12:31.838Z,50.40
2018-01-15T17:15:00.521Z,50.40
2018-01-15T17:17:28.463Z,50.40
2018-01-15T17:19:56.342Z,50.40
2018-01-15T17:22:24.260Z,50.60
2018-01-15T17:24:52.734Z,50.70
2018-01-15T17:27:20.607Z,50.80
2018-01-15T17:29:48.692Z,50.70
2018-01-15T17:32:16.549Z,50.70
2018-01-15T17:34:45.292Z,50.70
2018-01-15T17:37:13.148Z,50.60
2018-01-15T17:39:41.047Z,50.60
2018-01-15T17:42:10.218Z,50.70
2018-01-15T17:44:38.096Z,50.70
2018-01-15T17:47:07.704Z,50.80
2018-01-15T17:49:37.264Z,50.80
2018-01-15T17:52:05.239Z,50.90
2018-01-15T17:54:33.209Z,51.10
2018-01-15T17:57:01.195Z,51.40
2018-01-15T17:59:29.138Z,51.40
2018-01-15T18:01:58.036Z,51.40
2018-01-15T18:04:26.801Z,51.40
2018-01-15T18:06:54.752Z,51.30
2018-01-15T18:09:22.774Z,51.30
2018-01-15T18:11:50.652Z,51.30
2018-01-15T18:14:18.529Z,51.30
2018-01-15T18:16:47.173Z,51.20
2018-01-15T18:19:15.064Z,51.20
2018-01-15T18:21:42.934Z,51.20
2018-01-15T18:24:10.872Z,51.20
2018-01-15T18:26:39.492Z,51.30
2018-01-15T18:29:07.471Z,51.30
2018-01-15T18:31:35.493Z,51.30
2018-01-15T18:34:03.974Z,51.50
2018-01-15T18:36:32.278Z,51.50
2018-01-15T18:39:00.224Z,51.60
2018-01-15T18:41:28.086Z,51.80
2018-01-15T18:43:56.032Z,51.90
2018-01-15T18:46:23.960Z,52.00
2018-01-15T18:48:51.885Z,51.90
2018-01-15T18:51:20.287Z,52.10
2018-01-15T18:53:50.547Z,51.90
2018-01-15T18:56:18.793Z,51.90
2018-01-15T18:58:46.845Z,52.00
2018-01-15T19:01:14.809Z,52.00
2018-01-15T19:03:42.656Z,51.90
2018-01-15T19:06:10.613Z,51.90
2018-01-15T19:08:38.505Z,51.80
2018-01-15T19:11:07.777Z,51.80
2018-01-15T19:13:35.763Z,51.80
2018-01-15T19:16:03.646Z,51.80
2018-01-15T19:18:31.517Z,51.80
2018-01-15T19:20:59.373Z,51.90
2018-01-15T19:23:27.224Z,52.00
2018-01-15T19:25:56.227Z,52.00
2018-01-15T19:28:24.185Z,52.10
2018-01-15T19:30:53.268Z,52.00
2018-01-15T19:33:21.872Z,52.10
2018-01-15T19:35:52.794Z,52.10
2018-01-15T19:38:21.630Z,52.10
2018-01-15T19:40:50.120Z,52.20
2018-01-15T19:43:32.840Z,52.20
2018-01-15T19:46:06.168Z,52.20
2018-01-15T19:48:39.733Z,52.30
2018-01-15T19:51:13.931Z,52.50
2018-01-15T19:53:47.598Z,52.50
2018-01-15T19:56:21.232Z,52.50
2018-01-15T19:59:03.994Z,52.80
2018-01-15T20:01:37.462Z,53.70
2018-01-15T20:04:10.828Z,54.40
2018-01-15T20:06:44.284Z,54.40
2018-01-15T20:09:17.678Z,54.80
2018-01-15T20:11:45.703Z,54.70
2018-01-15T20:14:13.806Z,54.50
2018-01-15T20:16:43.573Z,54.10
2018-01-15T20:19:11.770Z,54.00
2018-01-15T20:21:39.671Z,53.70
2018-01-15T20:24:07.533Z,53.50
2018-01-15T20:26:36.154Z,53.30
2018-01-15T20:29:04.085Z,53.30
2018-01-15T20:31:32.695Z,53.50
2018-01-15T20:34:01.556Z,53.60
2018-01-15T20:36:30.152Z,53.50
2018-01-15T20:38:57.990Z,53.40
2018-01-15T20:41:26.020Z,53.30
2018-01-15T20:43:53.848Z,54.00
2018-01-15T20:46:21.722Z,53.20
2018-01-15T20:48:49.552Z,53.30
2018-01-15T20:51:17.475Z,53.30
2018-01-15T20:53:45.479Z,53.50
2018-01-15T20:56:13.416Z,53.50
2018-01-15T20:58:42.171Z,53.50
2018-01-15T21:01:10.935Z,53.50
2018-01-15T21:03:40.089Z,54.10
2018-01-15T21:06:07.984Z,53.60
2018-01-15T21:08:35.869Z,53.50
2018-01-15T21:13:58.505Z,53.50
2018-01-15T21:16:27.100Z,53.20
2018-01-15T21:18:55.800Z,52.90
2018-01-15T21:21:24.454Z,52.90
2018-01-15T21:23:52.600Z,52.90
2018-01-15T21:26:20.621Z,53.00
2018-01-15T21:28:49.781Z,52.90
2018-01-15T21:31:19.188Z,52.90
2018-01-15T21:33:48.427Z,52.90
2018-01-15T21:36:17.045Z,53.20
2018-01-15T23:28:33.537Z,50.90
2018-01-15T23:31:02.153Z,51.20
2018-01-15T23:33:29.986Z,51.20
2018-01-15T23:35:58.537Z,51.30
2018-01-15T23:38:26.326Z,51.30
2018-01-15T23:40:54.129Z,50.90
2018-01-15T23:43:21.915Z,51.10
2018-01-15T23:45:49.695Z,51.00
2018-01-15T23:48:17.465Z,50.70
2018-01-15T23:50:45.316Z,50.90
2018-01-15T23:53:13.090Z,50.80
2018-01-15T23:55:40.860Z,50.90
2018-01-15T23:58:08.693Z,50.90
